Time;durP1;ratioP1;P1;durP2;ratioP2;P2;SDS_P1;SDS_P2;PMS_P1;PMS_P2;Temp;Humidity;BMP_temperature;BMP_pressure;BME280_temperature;BME280_humidity;BME280_pressure;Samples;Min_cycle;Max_cycle;Signal;HPM_P1;HPM_P2
2022/01/09 00:01:05;;;;;;;18.52;16.70;;;;;;;5.11;72.49;94082.25;5075527;28;20203;-63
2022/01/09 00:03:31;;;;;;;20.00;17.83;;;;;;;5.11;72.55;94077.59;5075394;28;20193;-63
2022/01/09 00:05:58;;;;;;;22.40;20.02;;;;;;;5.11;72.35;94085.78;5075325;28;20196;-63
2022/01/09 00:08:27;;;;;;;22.58;20.17;;;;;;;5.09;72.58;94082.59;5075524;28;20509;-63
2022/01/09 00:10:53;;;;;;;23.33;20.83;;;;;;;5.04;72.42;94085.56;5074671;28;20193;-63
2022/01/09 00:13:20;;;;;;;22.70;20.45;;;;;;;5.02;72.83;94082.38;5075244;28;20213;-63
2022/01/09 00:15:47;;;;;;;22.98;20.83;;;;;;;5.03;73.14;94084.75;5075202;28;20185;-63
2022/01/09 00:18:14;;;;;;;21.63;19.42;;;;;;;5.04;73.22;94074.63;5075008;28;20589;-63
2022/01/09 00:20:41;;;;;;;22.40;20.02;;;;;;;5.05;73.07;94076.22;5074380;28;20204;-63
2022/01/09 00:23:08;;;;;;;21.33;19.20;;;;;;;5.05;72.83;94079.75;5074937;28;20189;-63
2022/01/09 00:25:36;;;;;;;20.95;18.95;;;;;;;5.05;73.30;94087.97;5073958;28;20243;-63
2022/01/09 00:28:03;;;;;;;21.30;19.23;;;;;;;5.05;72.97;94087.16;5074260;28;20234;-63
2022/01/09 00:30:30;;;;;;;21.70;19.52;;;;;;;5.04;73.26;94082.81;5074401;28;20208;-63
2022/01/09 00:32:57;;;;;;;21.45;19.15;;;;;;;5.02;73.00;94071.44;5074114;28;20205;-63
2022/01/09 00:35:24;;;;;;;20.63;18.63;;;;;;;5.00;73.22;94071.78;5075183;28;20211;-63
2022/01/09 00:37:50;;;;;;;21.50;19.27;;;;;;;4.99;73.62;94074.84;5075150;28;20557;-63
2022/01/09 00:40:18;;;;;;;21.65;19.52;;;;;;;5.01;73.64;94073.38;5075420;28;20193;-63
2022/01/09 00:42:46;;;;;;;21.33;19.13;;;;;;;5.03;73.38;94065.63;5076056;28;20612;-63
2022/01/09 00:45:14;;;;;;;22.20;19.95;;;;;;;5.05;73.23;94068.03;5079342;28;20616;-63
2022/01/09 00:47:41;;;;;;;19.92;17.92;;;;;;;5.09;72.91;94062.69;5078755;28;20189;-63
2022/01/09 00:50:08;;;;;;;17.65;15.85;;;;;;;5.10;73.61;94058.81;5078985;28;20186;-63
2022/01/09 00:52:35;;;;;;;17.65;15.85;;;;;;;5.13;73.17;94066.31;5077897;28;20226;-63
2022/01/09 00:55:02;;;;;;;18.00;16.20;;;;;;;5.16;73.35;94069.16;5078173;28;20197;-63
2022/01/09 00:57:29;;;;;;;17.27;15.57;;;;;;;5.19;72.97;94064.94;5078000;28;20199;-63
2022/01/09 00:59:57;;;;;;;16.90;15.20;;;;;;;5.19;73.02;94063.03;5078110;28;20209;-63
2022/01/09 01:02:24;;;;;;;17.23;15.48;;;;;;;5.20;72.78;94063.81;5078970;28;20188;-64
2022/01/09 01:04:51;;;;;;;16.15;14.63;;;;;;;5.20;72.81;94058.34;5078780;28;20181;-63
2022/01/09 01:07:19;;;;;;;17.17;15.48;;;;;;;5.21;72.63;94058.00;5077972;28;20193;-63
2022/01/09 01:09:46;;;;;;;16.33;14.63;;;;;;;5.22;72.59;94061.50;5078685;28;20222;-63
2022/01/09 01:12:13;;;;;;;16.38;14.68;;;;;;;5.22;73.00;94056.03;5078342;28;20212;-63
2022/01/09 01:14:40;;;;;;;15.63;14.07;;;;;;;5.20;72.70;94058.34;5078274;28;20517;-63
2022/01/09 01:17:09;;;;;;;17.30;15.63;;;;;;;5.18;73.29;94055.16;5077456;28;20189;-63
2022/01/09 01:19:36;;;;;;;18.08;16.25;;;;;;;5.20;73.57;94050.16;5078572;28;20185;-63
2022/01/09 01:22:03;;;;;;;17.80;16.00;;;;;;;5.18;73.24;94053.19;5077555;28;20189;-63
2022/01/09 01:24:30;;;;;;;17.55;15.75;;;;;;;5.17;72.99;94046.16;5077169;28;20613;-63
2022/01/09 01:26:56;;;;;;;16.63;14.95;;;;;;;5.17;73.56;94040.69;5078281;28;20652;-63
2022/01/09 01:29:24;;;;;;;17.02;15.32;;;;;;;5.20;73.45;94048.19;5077410;28;20216;-63
2022/01/09 01:31:51;;;;;;;16.35;14.75;;;;;;;5.22;73.43;94045.13;5077769;28;20524;-63
2022/01/09 01:34:19;;;;;;;16.33;14.73;;;;;;;5.21;73.06;94043.53;5077922;28;20177;-63
2022/01/09 01:36:46;;;;;;;15.15;13.75;;;;;;;5.22;72.87;94043.16;5077943;28;20200;-63
2022/01/09 01:39:13;;;;;;;15.30;13.80;;;;;;;5.20;72.58;94034.53;5077351;28;20201;-64
2022/01/09 01:41:39;;;;;;;16.10;14.50;;;;;;;5.22;73.36;94036.91;5077175;28;20201;-64
2022/01/09 01:44:10;;;;;;;15.30;13.82;;;;;;;5.23;72.60;94038.53;5077347;28;20209;-64
2022/01/09 01:46:37;;;;;;;15.82;14.25;;;;;;;5.22;72.86;94024.03;5077074;28;20220;-64
2022/01/09 01:49:04;;;;;;;16.10;14.57;;;;;;;5.23;73.00;94022.13;5077873;28;20204;-64
2022/01/09 01:51:34;;;;;;;16.13;14.52;;;;;;;5.22;72.87;94017.78;5077216;28;20197;-64
2022/01/09 01:54:01;;;;;;;15.32;13.85;;;;;;;5.23;73.01;94022.13;5076159;28;20208;-64
2022/01/09 01:56:27;;;;;;;15.90;14.20;;;;;;;5.24;72.86;94018.25;5077823;28;20185;-64
2022/01/09 01:58:55;;;;;;;15.43;14.00;;;;;;;5.24;73.24;94019.03;5077905;28;20189;-64
2022/01/09 02:01:22;;;;;;;17.02;15.43;;;;;;;5.24;73.30;94013.56;5076625;28;20197;-64
2022/01/09 02:03:49;;;;;;;16.15;14.65;;;;;;;5.26;73.69;94003.06;5077602;28;20582;-64
2022/01/09 02:06:16;;;;;;;16.42;14.90;;;;;;;5.26;73.33;94000.31;5078013;28;20189;-64
2022/01/09 02:08:44;;;;;;;15.25;13.75;;;;;;;5.27;73.29;93993.75;5076779;28;20193;-64
2022/01/09 02:11:11;;;;;;;16.15;14.45;;;;;;;5.25;73.07;93989.75;5076760;28;20201;-64
2022/01/09 02:13:40;;;;;;;14.60;13.20;;;;;;;5.23;73.02;93983.84;5076505;28;20217;-64
2022/01/09 02:16:07;;;;;;;16.23;14.73;;;;;;;5.21;73.06;93972.44;5077481;28;20259;-64
2022/01/09 02:18:34;;;;;;;15.98;14.27;;;;;;;5.20;73.35;93968.94;5076566;28;20306;-64
2022/01/09 02:21:02;;;;;;;14.70;13.20;;;;;;;5.18;73.21;93981.34;5076463;28;20189;-64
2022/01/09 02:23:30;;;;;;;15.68;14.07;;;;;;;5.17;72.97;93975.06;5076592;28;20621;-64
2022/01/09 02:25:57;;;;;;;15.20;13.70;;;;;;;5.14;73.15;93970.28;5076094;28;20328;-64
2022/01/09 02:28:26;;;;;;;15.07;13.57;;;;;;;5.13;73.47;93971.44;5077317;28;20193;-64
2022/01/09 02:30:53;;;;;;;14.73;13.32;;;;;;;5.10;73.40;93958.47;5076925;28;20189;-64
2022/01/09 02:33:20;;;;;;;15.43;14.02;;;;;;;5.07;73.52;93962.69;5076383;28;20315;-64
2022/01/09 02:35:50;;;;;;;15.55;14.05;;;;;;;5.05;73.40;93955.97;5076222;28;20548;-64
2022/01/09 02:38:19;;;;;;;15.48;13.93;;;;;;;5.02;73.43;93951.19;5076725;28;20197;-64
2022/01/09 02:40:50;;;;;;;15.57;14.05;;;;;;;5.02;73.60;93941.06;5076571;28;20197;-64
2022/01/09 02:43:17;;;;;;;15.00;13.60;;;;;;;4.93;73.08;93939.59;5077036;28;20189;-64
2022/01/09 02:45:47;;;;;;;16.13;14.63;;;;;;;4.86;73.63;93953.03;5076613;28;20189;-64
2022/01/09 02:48:14;;;;;;;16.08;14.57;;;;;;;4.81;73.60;93948.59;5076904;28;20223;-64
2022/01/09 02:50:50;;;;;;;17.00;15.35;;;;;;;4.75;73.94;93942.56;5075518;28;20204;-64
2022/01/09 02:53:20;;;;;;;16.85;15.23;;;;;;;4.74;74.15;93935.53;5075761;28;20307;-64
2022/01/09 02:55:48;;;;;;;16.15;14.55;;;;;;;4.76;74.26;93933.25;5076603;28;20211;-63
2022/01/09 02:58:15;;;;;;;15.63;14.13;;;;;;;4.78;73.85;93933.69;5076249;28;20185;-63
2022/01/09 03:00:44;;;;;;;16.63;14.93;;;;;;;4.81;74.32;93940.41;5076345;28;20528;-63
2022/01/09 03:03:11;;;;;;;17.50;15.70;;;;;;;4.83;74.21;93935.41;5076545;28;20188;-64
2022/01/09 03:05:38;;;;;;;17.52;15.82;;;;;;;4.85;74.21;93933.13;5075017;28;20208;-64
2022/01/09 03:08:05;;;;;;;17.13;15.48;;;;;;;4.87;74.22;93932.78;5075235;28;20204;-64
2022/01/09 03:10:33;;;;;;;16.70;14.90;;;;;;;4.88;74.33;93926.97;5075888;28;20229;-64
2022/01/09 03:13:00;;;;;;;17.15;15.38;;;;;;;4.89;74.16;93920.34;5075367;28;20221;-64
2022/01/09 03:15:28;;;;;;;17.23;15.50;;;;;;;4.88;74.19;93912.53;5075317;28;20205;-64
2022/01/09 03:17:54;;;;;;;17.63;15.90;;;;;;;4.88;74.51;93910.56;5075921;28;20181;-64
2022/01/09 03:20:23;;;;;;;17.35;15.50;;;;;;;4.89;74.06;93908.63;5076163;28;20222;-64
2022/01/09 03:22:50;;;;;;;18.30;16.02;;;;;;;4.87;74.14;93911.72;5075264;28;20292;-64
2022/01/09 03:25:17;;;;;;;18.25;16.40;;;;;;;4.87;74.29;93910.94;5074932;28;20196;-64
2022/01/09 03:27:48;;;;;;;17.63;15.80;;;;;;;4.88;74.51;93912.53;5075919;28;20193;-63
2022/01/09 03:30:15;;;;;;;18.50;16.60;;;;;;;4.87;74.71;93919.13;5076058;28;20181;-63
2022/01/09 03:32:43;;;;;;;18.25;16.48;;;;;;;4.86;74.46;93915.56;5075503;28;20200;-63
2022/01/09 03:35:12;;;;;;;18.08;16.20;;;;;;;4.83;74.03;93919.81;5075605;28;20200;-63
2022/01/09 03:37:40;;;;;;;17.50;15.80;;;;;;;4.78;74.35;93903.66;5075880;28;20185;-63
2022/01/09 03:40:09;;;;;;;17.08;15.38;;;;;;;4.72;73.87;93907.78;5074580;28;20200;-63
2022/01/09 03:42:36;;;;;;;17.15;15.48;;;;;;;4.69;74.42;93896.75;5075179;28;20201;-63
2022/01/09 03:45:05;;;;;;;19.23;17.23;;;;;;;4.67;74.13;93902.53;5075276;28;20193;-63
2022/01/09 03:47:32;;;;;;;19.15;17.33;;;;;;;4.63;74.08;93904.34;5074849;28;20193;-63
2022/01/09 03:49:59;;;;;;;19.40;17.50;;;;;;;4.61;74.44;93914.81;5075481;28;20201;-64
2022/01/09 03:52:27;;;;;;;20.85;18.75;;;;;;;4.58;74.48;93912.78;5076018;28;20185;-64
2022/01/09 03:54:55;;;;;;;20.02;18.13;;;;;;;4.58;74.36;93908.13;5075700;28;20208;-64
2022/01/09 03:57:21;;;;;;;19.77;17.83;;;;;;;4.61;74.52;93903.09;5075793;28;20177;-63
2022/01/09 03:59:48;;;;;;;19.25;17.45;;;;;;;4.62;74.85;93899.25;5074322;28;20203;-63
2022/01/09 04:02:16;;;;;;;18.65;16.70;;;;;;;4.64;74.69;93883.31;5075693;28;20201;-64
2022/01/09 04:04:43;;;;;;;17.33;15.63;;;;;;;4.66;74.61;93890.03;5075495;28;20189;-64
2022/01/09 04:07:10;;;;;;;18.50;16.63;;;;;;;4.62;74.35;93891.84;5074530;28;20189;-64
2022/01/09 04:09:40;;;;;;;17.75;15.98;;;;;;;4.62;74.93;93886.38;5074558;28;20185;-64
2022/01/09 04:12:15;;;;;;;16.63;15.02;;;;;;;4.64;74.85;93884.09;5074378;28;20722;-64
2022/01/09 04:14:42;;;;;;;19.10;17.25;;;;;;;4.64;74.63;93891.50;5074727;28;20219;-64
2022/01/09 04:17:14;;;;;;;19.40;17.48;;;;;;;4.61;74.72;93892.19;5074094;28;20296;-64
2022/01/09 04:19:43;;;;;;;18.48;16.75;;;;;;;4.58;74.53;93896.41;5074561;28;20189;-64
2022/01/09 04:22:09;;;;;;;16.98;15.38;;;;;;;4.56;74.91;93893.22;5075181;28;20191;-64
2022/01/09 04:24:36;;;;;;;17.83;16.13;;;;;;;4.56;74.25;93895.94;5075378;28;20196;-63
2022/01/09 04:27:03;;;;;;;19.08;17.25;;;;;;;4.49;74.29;93891.06;5074904;28;20292;-63
2022/01/09 04:29:31;;;;;;;17.40;15.63;;;;;;;4.45;74.45;93884.69;5074976;28;20306;-64
2022/01/09 04:31:58;;;;;;;18.55;16.70;;;;;;;4.44;74.95;93880.38;5074498;28;20215;-64
2022/01/09 04:34:25;;;;;;;17.48;15.88;;;;;;;4.45;74.96;93884.69;5074199;28;20659;-64
2022/01/09 04:36:53;;;;;;;18.55;16.67;;;;;;;4.45;75.38;93887.44;5074279;28;20189;-64
2022/01/09 04:39:20;;;;;;;17.73;15.80;;;;;;;4.44;75.19;93879.59;5074220;28;20197;-63
2022/01/09 04:41:47;;;;;;;18.55;16.75;;;;;;;4.43;74.96;93889.72;5074902;28;20191;-63
2022/01/09 04:44:14;;;;;;;18.70;16.85;;;;;;;4.41;75.04;93883.00;5074254;28;20197;-63
2022/01/09 04:46:46;;;;;;;18.08;16.30;;;;;;;4.43;75.12;93884.25;5074841;28;20185;-65
2022/01/09 04:49:13;;;;;;;20.83;18.67;;;;;;;4.44;74.94;93896.75;5075340;28;20216;-64
2022/01/09 04:51:39;;;;;;;19.15;17.20;;;;;;;4.46;75.00;93899.13;5074903;28;20281;-64
2022/01/09 04:54:08;;;;;;;18.63;16.73;;;;;;;4.49;75.10;93901.19;5074155;28;20217;-64
2022/01/09 04:56:34;;;;;;;19.38;17.48;;;;;;;4.52;75.34;93900.50;5074171;28;20193;-64
2022/01/09 04:59:01;;;;;;;19.80;17.90;;;;;;;4.56;75.20;93901.41;5074976;28;20185;-64
2022/01/09 05:01:28;;;;;;;19.60;17.60;;;;;;;4.59;75.11;93898.00;5074064;28;20208;-65
2022/01/09 05:03:55;;;;;;;17.42;15.70;;;;;;;4.63;74.81;93909.03;5074929;28;20189;-64
2022/01/09 05:06:22;;;;;;;17.67;16.02;;;;;;;4.64;75.10;93900.47;5074049;28;20213;-64
2022/01/09 05:08:48;;;;;;;18.17;16.27;;;;;;;4.67;74.98;93908.00;5075010;28;20212;-64
2022/01/09 05:11:17;;;;;;;17.20;15.68;;;;;;;4.70;74.97;93904.56;5074822;28;20186;-64
2022/01/09 05:13:43;;;;;;;17.25;15.65;;;;;;;4.74;74.79;93902.75;5074457;28;20656;-64
2022/01/09 05:16:10;;;;;;;16.77;15.18;;;;;;;4.75;74.68;93907.06;5074418;28;20186;-64
2022/01/09 05:18:50;;;;;;;16.13;14.65;;;;;;;4.78;75.28;93895.44;5074423;28;20192;-64
2022/01/09 05:21:17;;;;;;;16.02;14.48;;;;;;;4.80;74.87;93892.38;5073783;28;20297;-63
2022/01/09 05:23:44;;;;;;;14.80;13.30;;;;;;;4.81;74.79;93889.31;5073760;28;20563;-63
2022/01/09 05:26:11;;;;;;;14.68;13.27;;;;;;;4.82;74.62;93884.63;5073790;28;20233;-63
2022/01/09 05:28:39;;;;;;;15.07;13.60;;;;;;;4.83;74.58;93878.03;5073514;28;20205;-63
2022/01/09 05:31:06;;;;;;;14.73;13.23;;;;;;;4.85;74.88;93881.22;5077037;28;20189;-63
2022/01/09 05:33:33;;;;;;;14.95;13.52;;;;;;;4.88;74.96;93882.47;5077303;28;20213;-64
2022/01/09 05:36:00;;;;;;;14.23;12.82;;;;;;;4.90;74.92;93874.69;5077258;28;20205;-63
2022/01/09 05:38:26;;;;;;;14.15;12.80;;;;;;;4.90;74.61;93870.06;5078101;28;20204;-63
2022/01/09 05:40:53;;;;;;;13.77;12.45;;;;;;;4.92;74.40;93875.16;5077848;28;20563;-63
2022/01/09 05:43:20;;;;;;;14.13;12.73;;;;;;;4.90;74.34;93866.50;5077339;28;20197;-63
2022/01/09 05:45:48;;;;;;;14.10;12.80;;;;;;;4.91;74.85;93876.31;5077233;28;20193;-63
2022/01/09 05:48:16;;;;;;;13.65;12.45;;;;;;;4.92;74.46;93872.44;5077970;28;20185;-63
2022/01/09 05:50:43;;;;;;;13.07;11.88;;;;;;;4.91;74.46;93868.13;5077651;28;20197;-63
2022/01/09 05:53:10;;;;;;;14.30;13.00;;;;;;;4.93;74.82;93866.59;5077881;28;20207;-63
2022/01/09 05:55:37;;;;;;;14.40;12.95;;;;;;;4.93;74.59;93857.63;5077105;28;20198;-63
2022/01/09 05:58:04;;;;;;;14.23;13.00;;;;;;;4.93;74.59;93865.81;5076939;28;20602;-63
2022/01/09 06:00:30;;;;;;;14.50;13.10;;;;;;;4.94;74.19;93868.22;5077398;28;20197;-63
2022/01/09 06:02:59;;;;;;;15.88;14.38;;;;;;;4.95;74.25;93867.06;5077498;28;20189;-64
2022/01/09 06:05:25;;;;;;;16.00;14.52;;;;;;;4.96;74.52;93865.91;5076821;28;20199;-64
2022/01/09 06:07:52;;;;;;;17.98;16.27;;;;;;;4.95;74.01;93860.81;5077307;28;20181;-64
2022/01/09 06:10:19;;;;;;;19.10;17.30;;;;;;;4.93;73.55;93863.09;5077501;28;20189;-65
2022/01/09 06:12:46;;;;;;;19.75;17.85;;;;;;;4.87;73.94;93865.28;5077920;28;20181;-64
2022/01/09 06:15:12;;;;;;;22.20;20.10;;;;;;;4.85;73.98;93866.75;5077151;28;20201;-64
2022/01/09 06:17:40;;;;;;;21.58;19.48;;;;;;;4.83;74.00;93865.19;5076562;28;20197;-64
2022/01/09 06:20:11;;;;;;;20.95;18.85;;;;;;;4.79;73.83;93858.81;5077664;28;20199;-64
2022/01/09 06:22:40;;;;;;;21.40;19.40;;;;;;;4.74;74.16;93855.50;5076680;28;20205;-64
2022/01/09 06:25:08;;;;;;;20.63;18.63;;;;;;;4.73;74.21;93862.13;5077115;28;20181;-64
2022/01/09 06:27:35;;;;;;;22.15;19.73;;;;;;;4.71;74.25;93862.47;5077417;28;20606;-66
2022/01/09 06:30:02;;;;;;;22.58;20.48;;;;;;;4.73;74.53;93859.41;5077127;28;20197;-63
2022/01/09 06:32:30;;;;;;;22.15;19.90;;;;;;;4.73;74.22;93856.66;5077243;28;20188;-63
2022/01/09 06:34:57;;;;;;;22.50;20.27;;;;;;;4.74;73.88;93859.03;5076948;28;20213;-63
2022/01/09 06:37:25;;;;;;;21.98;19.75;;;;;;;4.78;74.23;93849.00;5077457;28;20242;-63
2022/01/09 06:39:52;;;;;;;22.42;20.23;;;;;;;4.84;74.05;93855.03;5076560;28;20185;-63
2022/01/09 06:42:19;;;;;;;21.33;19.13;;;;;;;4.84;74.66;93849.56;5077306;28;20181;-63
2022/01/09 06:44:46;;;;;;;20.10;18.02;;;;;;;4.86;74.72;93852.75;5076948;28;20199;-63
2022/01/09 06:47:13;;;;;;;22.00;19.70;;;;;;;4.90;75.02;93858.31;5076697;28;20185;-63
2022/01/09 06:49:39;;;;;;;25.02;22.20;;;;;;;4.96;75.05;93865.91;5076836;28;20189;-63
2022/01/09 06:52:07;;;;;;;24.45;21.98;;;;;;;5.03;74.96;93847.00;5075888;28;20194;-63
2022/01/09 06:54:35;;;;;;;21.58;19.38;;;;;;;5.07;74.53;93850.63;5076645;28;20205;-65
2022/01/09 06:57:02;;;;;;;20.02;18.02;;;;;;;5.06;74.72;93848.25;5075490;28;20224;-63
2022/01/09 06:59:29;;;;;;;16.70;15.10;;;;;;;5.12;74.21;93851.50;5075758;28;20304;-68
2022/01/09 07:01:56;;;;;;;15.48;14.07;;;;;;;5.16;73.98;93855.97;5076480;28;20196;-64
2022/01/09 07:04:22;;;;;;;16.27;14.60;;;;;;;5.19;73.71;93857.19;5075939;28;20197;-63
2022/01/09 07:06:49;;;;;;;15.80;14.20;;;;;;;5.20;73.81;93853.31;5077447;28;20185;-63
2022/01/09 07:09:16;;;;;;;15.68;14.05;;;;;;;5.19;73.50;93866.19;5075564;28;20193;-63
2022/01/09 07:11:44;;;;;;;16.60;15.00;;;;;;;5.25;73.98;93867.53;5075507;28;20204;-63
2022/01/09 07:14:11;;;;;;;16.80;15.10;;;;;;;5.34;73.11;93864.66;5076245;28;20227;-63
2022/01/09 07:16:38;;;;;;;17.52;15.93;;;;;;;5.39;73.33;93861.66;5075491;28;20200;-63
2022/01/09 07:19:05;;;;;;;17.13;15.45;;;;;;;5.42;72.84;93873.84;5075326;28;20189;-63
2022/01/09 07:21:31;;;;;;;17.10;15.30;;;;;;;5.40;73.12;93870.66;5075282;28;20201;-63
2022/01/09 07:23:58;;;;;;;16.55;15.00;;;;;;;5.42;73.59;93877.38;5075832;28;20178;-64
2022/01/09 07:26:25;;;;;;;16.63;14.93;;;;;;;5.47;73.42;93876.31;5075856;28;20240;-64
2022/01/09 07:28:53;;;;;;;15.27;13.88;;;;;;;5.50;73.25;93860.00;5076098;28;20193;-63
2022/01/09 07:31:20;;;;;;;14.23;12.93;;;;;;;5.56;73.41;93860.56;5075945;28;20201;-63
2022/01/09 07:33:47;;;;;;;11.98;10.98;;;;;;;5.59;72.02;93856.31;5075891;28;20193;-63
2022/01/09 07:36:16;;;;;;;13.15;11.95;;;;;;;5.61;72.53;93862.22;5075390;28;20526;-64
2022/01/09 07:38:42;;;;;;;13.02;11.73;;;;;;;5.65;72.46;93869.38;5076010;28;20200;-64
2022/01/09 07:41:12;;;;;;;12.73;11.43;;;;;;;5.69;71.88;93862.06;5076100;28;20181;-64
2022/01/09 07:43:39;;;;;;;11.95;10.75;;;;;;;5.73;72.22;93859.41;5075955;28;20200;-63
2022/01/09 07:46:07;;;;;;;12.05;10.95;;;;;;;5.74;71.64;93861.81;5074741;28;20211;-66
2022/01/09 07:48:35;;;;;;;12.27;11.18;;;;;;;5.75;71.80;93865.34;5075132;28;20197;-64
2022/01/09 07:51:02;;;;;;;12.90;11.60;;;;;;;5.78;71.65;93849.00;5075227;28;20197;-63
2022/01/09 07:53:28;;;;;;;12.65;11.35;;;;;;;5.82;71.75;93854.56;5075005;28;20212;-63
2022/01/09 07:55:55;;;;;;;13.48;11.65;;;;;;;5.85;70.94;93842.13;5076086;28;20212;-64
2022/01/09 07:58:22;;;;;;;13.95;12.13;;;;;;;5.83;70.95;93844.41;5074958;28;20214;-64
2022/01/09 08:00:49;;;;;;;14.57;13.07;;;;;;;5.81;71.46;93850.25;5075014;28;20189;-64
2022/01/09 08:03:17;;;;;;;15.55;14.05;;;;;;;5.86;71.11;93847.25;5075648;28;20178;-62
2022/01/09 08:05:44;;;;;;;17.15;15.50;;;;;;;5.87;70.33;93846.09;5075312;28;20192;-63
2022/01/09 08:08:11;;;;;;;14.20;12.77;;;;;;;5.90;70.61;93844.59;5075493;28;20189;-63
2022/01/09 08:10:38;;;;;;;10.98;9.98;;;;;;;5.88;70.41;93846.88;5075312;28;20193;-62
2022/01/09 08:13:04;;;;;;;8.70;7.90;;;;;;;5.95;70.05;93827.94;5075283;28;20196;-71
2022/01/09 08:15:31;;;;;;;7.72;7.13;;;;;;;5.99;69.30;93837.84;5075233;28;20204;-64
2022/01/09 08:17:58;;;;;;;7.45;6.80;;;;;;;6.01;69.19;93823.78;5075285;28;20260;-64
2022/01/09 08:20:26;;;;;;;6.68;6.18;;;;;;;5.94;68.43;93818.94;5075491;28;20196;-64
2022/01/09 08:22:53;;;;;;;6.78;6.18;;;;;;;5.93;68.64;93824.78;5074930;28;20197;-64
2022/01/09 08:25:20;;;;;;;7.55;6.95;;;;;;;5.96;69.10;93813.91;5074727;28;20178;-64
2022/01/09 08:27:47;;;;;;;6.75;6.15;;;;;;;5.97;69.24;93806.50;5075520;28;20181;-65
2022/01/09 08:30:16;;;;;;;7.43;6.72;;;;;;;6.03;68.69;93826.97;5076118;28;20189;-65
2022/01/09 08:32:43;;;;;;;6.93;6.35;;;;;;;6.05;68.71;93800.03;5074202;28;20199;-65
2022/01/09 08:35:10;;;;;;;6.32;5.72;;;;;;;6.15;68.96;93813.19;5075647;28;20219;-65
2022/01/09 08:37:41;;;;;;;6.18;5.63;;;;;;;6.18;68.50;93807.00;5074969;28;20513;-65
2022/01/09 08:40:09;;;;;;;5.10;4.70;;;;;;;6.22;67.86;93810.63;5075521;28;20189;-65
2022/01/09 08:42:36;;;;;;;5.45;4.95;;;;;;;6.30;67.62;93808.03;5074856;28;20201;-65
2022/01/09 08:45:03;;;;;;;6.50;5.95;;;;;;;6.31;67.86;93806.88;5075008;28;20197;-65
2022/01/09 08:47:30;;;;;;;6.15;5.65;;;;;;;6.35;68.01;93815.97;5074100;28;20201;-65
2022/01/09 08:49:57;;;;;;;6.32;5.72;;;;;;;6.34;68.10;93798.75;5075682;28;20276;-65
2022/01/09 08:52:24;;;;;;;6.90;5.85;;;;;;;6.37;67.72;93795.31;5075852;28;20195;-65
2022/01/09 08:54:52;;;;;;;6.72;5.80;;;;;;;6.41;67.85;93803.59;5073733;28;20209;-65
2022/01/09 08:57:19;;;;;;;6.03;5.53;;;;;;;6.44;67.89;93802.88;5075046;28;20189;-65
2022/01/09 08:59:46;;;;;;;6.55;5.95;;;;;;;6.49;67.51;93786.16;5073726;28;20204;-65
2022/01/09 09:02:13;;;;;;;7.85;6.68;;;;;;;6.51;67.66;93790.13;5074636;28;20211;-66
2022/01/09 09:04:40;;;;;;;7.38;6.78;;;;;;;6.57;67.21;93781.63;5077636;28;20185;-64
2022/01/09 09:07:07;;;;;;;8.10;7.30;;;;;;;6.63;67.17;93782.94;5077807;28;20205;-66
2022/01/09 09:09:34;;;;;;;9.15;7.20;;;;;;;6.70;67.68;93774.88;5078807;28;20185;-65
2022/01/09 09:12:02;;;;;;;7.82;7.13;;;;;;;6.81;67.72;93761.41;5078992;28;20181;-70
2022/01/09 09:14:29;;;;;;;8.30;7.50;;;;;;;6.88;66.91;93762.31;5078677;28;20268;-66
2022/01/09 09:16:56;;;;;;;7.10;6.50;;;;;;;6.94;66.93;93754.63;5077463;28;20236;-65
2022/01/09 09:19:23;;;;;;;7.28;6.63;;;;;;;6.97;66.79;93762.09;5078462;28;20266;-65
2022/01/09 09:21:50;;;;;;;6.80;6.20;;;;;;;6.94;66.17;93744.44;5077882;28;20200;-65
2022/01/09 09:24:17;;;;;;;6.80;6.20;;;;;;;7.00;66.37;93742.19;5078154;28;20515;-65
2022/01/09 09:26:44;;;;;;;7.10;6.35;;;;;;;7.19;66.71;93730.44;5078019;28;20237;-66
2022/01/09 09:29:12;;;;;;;6.63;6.03;;;;;;;7.45;66.21;93724.22;5078332;28;20181;-67
2022/01/09 09:31:39;;;;;;;7.28;6.40;;;;;;;7.62;65.64;93726.44;5078318;28;20189;-65
2022/01/09 09:34:08;;;;;;;7.32;5.53;;;;;;;7.65;64.69;93725.72;5078194;28;20192;-65
2022/01/09 09:36:35;;;;;;;5.57;5.07;;;;;;;7.65;64.74;93727.69;5077241;28;20217;-65
2022/01/09 09:39:02;;;;;;;7.28;6.47;;;;;;;7.63;63.94;93727.25;5077302;28;20193;-65
2022/01/09 09:41:28;;;;;;;5.63;5.07;;;;;;;7.60;64.04;93722.50;5077284;28;20212;-65
2022/01/09 09:43:55;;;;;;;5.43;4.93;;;;;;;7.72;64.39;93714.06;5078054;28;20196;-65
2022/01/09 09:46:23;;;;;;;5.28;4.80;;;;;;;7.78;63.35;93706.34;5076893;28;20205;-66
2022/01/09 09:48:51;;;;;;;5.45;5.00;;;;;;;7.97;63.40;93695.25;5077899;28;20178;-65
2022/01/09 09:51:18;;;;;;;5.13;4.72;;;;;;;8.17;62.67;93691.25;5078058;28;20196;-65
2022/01/09 09:53:45;;;;;;;4.72;4.32;;;;;;;8.14;61.53;93689.22;5076610;28;20195;-65
2022/01/09 09:56:12;;;;;;;5.13;4.68;;;;;;;8.32;61.97;93686.72;5077013;28;20544;-65
2022/01/09 09:58:39;;;;;;;5.20;4.80;;;;;;;8.24;61.74;93682.28;5077796;28;20254;-65
2022/01/09 10:01:08;;;;;;;5.60;5.10;;;;;;;8.16;61.69;93688.84;5076816;28;20593;-65
2022/01/09 10:03:36;;;;;;;5.72;5.22;;;;;;;8.10;62.11;93690.34;5077551;28;20207;-65
2022/01/09 10:06:03;;;;;;;7.68;5.53;;;;;;;8.01;62.35;93685.09;5077803;28;20516;-65
2022/01/09 10:08:37;;;;;;;5.80;5.15;;;;;;;8.02;62.41;93677.66;5077721;28;20196;-65
2022/01/09 10:11:14;;;;;;;5.78;5.28;;;;;;;7.83;62.41;93686.78;5077487;28;20213;-65
2022/01/09 10:13:41;;;;;;;5.50;5.10;;;;;;;7.83;63.00;93686.78;5077780;28;20185;-65
2022/01/09 10:16:09;;;;;;;6.45;5.70;;;;;;;7.86;63.41;93684.09;5075996;28;20216;-65
2022/01/09 10:18:42;;;;;;;6.55;5.95;;;;;;;7.90;63.73;93690.44;5076679;28;20292;-65
2022/01/09 10:21:13;;;;;;;5.18;4.68;;;;;;;7.81;63.46;93691.88;5077508;28;20204;-65
2022/01/09 10:23:57;;;;;;;5.97;5.35;;;;;;;7.72;63.40;93687.41;5077305;28;20181;-65
2022/01/09 10:26:24;;;;;;;6.50;5.90;;;;;;;7.81;63.80;93686.38;5077009;28;20240;-65
2022/01/09 10:28:51;;;;;;;6.40;5.80;;;;;;;7.86;63.71;93670.38;5076260;28;20208;-65
2022/01/09 10:31:19;;;;;;;7.20;5.78;;;;;;;7.87;63.73;93671.94;5076106;28;20203;-65
2022/01/09 10:34:01;;;;;;;6.20;5.68;;;;;;;7.95;63.71;93659.13;5077147;28;20188;-65
2022/01/09 10:36:36;;;;;;;6.40;5.80;;;;;;;8.05;63.39;93655.75;5076316;28;20687;-65
2022/01/09 10:39:06;;;;;;;6.80;6.10;;;;;;;8.11;63.02;93650.72;5077090;28;20195;-65
2022/01/09 10:41:46;;;;;;;6.85;5.32;;;;;;;8.16;62.65;93648.44;5077187;28;20182;-65
2022/01/09 10:44:19;;;;;;;7.25;6.38;;;;;;;8.18;63.46;93648.88;5076378;28;20207;-66
2022/01/09 10:47:00;;;;;;;7.25;6.32;;;;;;;8.25;63.37;93648.19;5076051;28;20201;-66
2022/01/09 10:49:38;;;;;;;7.68;6.97;;;;;;;8.26;62.97;93651.72;5076624;28;20556;-66
2022/01/09 10:52:15;;;;;;;8.68;7.18;;;;;;;8.24;63.15;93652.06;5076325;28;20656;-65
2022/01/09 10:54:46;;;;;;;6.55;5.90;;;;;;;8.34;63.93;93650.63;5076224;28;20200;-65
2022/01/09 10:57:15;;;;;;;8.43;6.45;;;;;;;8.44;65.03;93642.56;5075572;28;20205;-65
2022/01/09 10:59:42;;;;;;;7.53;5.93;;;;;;;8.45;63.63;93643.34;5075646;28;20208;-66
2022/01/09 11:02:10;;;;;;;7.85;6.85;;;;;;;8.36;63.42;93640.06;5076448;28;20197;-65
2022/01/09 11:04:38;;;;;;;5.75;5.25;;;;;;;8.24;64.46;93640.28;5075799;28;20197;-65
2022/01/09 11:07:05;;;;;;;5.13;4.57;;;;;;;8.04;63.82;93640.44;5076334;28;20185;-65
2022/01/09 11:09:33;;;;;;;6.78;6.18;;;;;;;7.88;64.91;93646.09;5075414;28;20609;-65
2022/01/09 11:12:02;;;;;;;6.57;5.90;;;;;;;7.74;65.42;93645.09;5076347;28;20226;-65
2022/01/09 11:14:34;;;;;;;6.90;6.22;;;;;;;7.66;65.14;93638.69;5076373;28;20268;-65
2022/01/09 11:17:04;;;;;;;7.07;6.15;;;;;;;7.57;65.58;93629.94;5076073;28;20275;-65
2022/01/09 11:19:31;;;;;;;6.90;6.13;;;;;;;7.47;66.06;93631.34;5075995;28;20299;-65
2022/01/09 11:22:02;;;;;;;7.38;6.68;;;;;;;7.53;66.45;93626.34;5077264;28;20196;-65
2022/01/09 11:24:56;;;;;;;6.38;5.88;;;;;;;7.51;66.03;93609.47;5076022;28;20247;-65
2022/01/09 11:27:27;;;;;;;6.68;6.07;;;;;;;7.42;66.28;93612.47;5076043;28;20691;-65
2022/01/09 11:30:03;;;;;;;5.93;5.43;;;;;;;7.41;66.25;93622.66;5076647;28;20189;-65
2022/01/09 11:32:40;;;;;;;7.80;6.50;;;;;;;7.41;66.34;93622.66;5078161;28;20204;-65